createdAt,value
2018-11-20T00:00:38.368Z,22.47
2018-11-20T00:03:27.316Z,18.13
2018-11-20T00:06:16.642Z,17.07
2018-11-20T00:09:05.590Z,20.30
2018-11-20T00:11:53.136Z,20.17
2018-11-20T00:14:32.045Z,19.40
2018-11-20T00:17:20.969Z,20.30
2018-11-20T00:20:12.872Z,21.47
2018-11-20T00:23:00.273Z,20.10
2018-11-20T00:25:52.104Z,19.67
2018-11-20T00:28:33.382Z,20.73
2018-11-20T00:31:21.140Z,21.00
2018-11-20T00:34:13.016Z,20.10
2018-11-20T00:37:01.960Z,20.03
2018-11-20T00:39:45.995Z,18.83
2018-11-20T00:42:31.367Z,20.00
2018-11-20T00:45:17.466Z,19.33
2018-11-20T00:48:05.030Z,20.30
2018-11-20T00:51:09.324Z,19.23
2018-11-20T00:53:54.940Z,19.47
2018-11-20T00:57:02.987Z,19.73
2018-11-20T01:00:12.221Z,18.77
2018-11-20T01:02:58.931Z,19.60
2018-11-20T01:05:36.478Z,17.13
2018-11-20T01:08:28.338Z,19.10
2018-11-20T01:11:35.405Z,19.03
2018-11-20T01:14:23.158Z,18.73
2018-11-20T01:17:19.335Z,18.80
2018-11-20T01:20:08.335Z,18.17
2018-11-20T01:23:12.458Z,17.77
2018-11-20T01:26:04.317Z,19.60
2018-11-20T01:28:52.005Z,19.07
2018-11-20T01:31:39.639Z,18.93
2018-11-20T01:34:20.564Z,19.30
2018-11-20T01:37:17.541Z,18.37
2018-11-20T01:40:09.471Z,20.83
2018-11-20T01:43:13.723Z,19.43
2018-11-20T01:46:01.690Z,19.60
2018-11-20T01:48:42.172Z,20.00
2018-11-20T01:51:29.972Z,20.30
2018-11-20T01:54:18.882Z,18.47
2018-11-20T01:57:06.708Z,20.20
2018-11-20T01:59:45.628Z,18.50
2018-11-20T02:02:33.352Z,21.00
2018-11-20T02:05:22.310Z,18.77
2018-11-20T02:08:10.304Z,20.57
2018-11-20T02:11:08.014Z,19.47
2018-11-20T02:14:06.284Z,20.37
2018-11-20T02:17:21.843Z,18.90
2018-11-20T02:20:13.441Z,19.83
2018-11-20T02:23:02.217Z,20.27
2018-11-20T02:25:56.469Z,19.00
2018-11-20T02:28:48.376Z,20.63
2018-11-20T02:31:35.697Z,21.00
2018-11-20T02:34:24.896Z,19.97
2018-11-20T02:37:12.634Z,19.53
2018-11-20T02:40:08.703Z,19.13
2018-11-20T02:42:51.624Z,21.13
2018-11-20T02:45:40.998Z,19.67
2018-11-20T02:48:29.582Z,20.80
2018-11-20T02:51:33.825Z,18.23
2018-11-20T02:54:22.768Z,19.10
2018-11-20T02:57:12.783Z,19.60
2018-11-20T03:00:00.246Z,18.67
2018-11-20T03:02:49.166Z,19.97
2018-11-20T03:05:41.723Z,19.90
2018-11-20T03:08:48.683Z,19.40
2018-11-20T03:11:49.590Z,18.53
2018-11-20T03:14:33.443Z,20.03
2018-11-20T03:17:31.353Z,18.50
2018-11-20T03:20:27.530Z,20.37
2018-11-20T03:23:19.668Z,20.43
2018-11-20T03:26:07.665Z,17.33
2018-11-20T03:29:05.787Z,20.10
2018-11-20T03:32:09.522Z,21.47
2018-11-20T03:34:48.589Z,19.20
2018-11-20T03:37:55.948Z,19.47
2018-11-20T03:40:43.418Z,19.03
2018-11-20T03:43:28.048Z,18.10
2018-11-20T03:46:14.378Z,17.47
2018-11-20T03:49:03.310Z,20.67
2018-11-20T03:52:10.189Z,18.83
2018-11-20T03:54:57.966Z,19.10
2018-11-20T03:57:45.675Z,19.10
2018-11-20T04:00:36.326Z,18.20
2018-11-20T04:03:28.855Z,16.97
2018-11-20T04:06:09.537Z,15.60
2018-11-20T04:08:57.311Z,19.07
2018-11-20T04:11:46.264Z,18.87
2018-11-20T04:14:44.049Z,16.67
2018-11-20T04:17:34.293Z,18.97
2018-11-20T04:20:23.610Z,18.27
2018-11-20T04:23:15.540Z,18.03
2018-11-20T04:26:03.056Z,18.10
2018-11-20T04:28:50.864Z,16.73
2018-11-20T04:32:02.903Z,19.50
2018-11-20T04:34:41.775Z,16.13
2018-11-20T04:37:39.651Z,19.00
2018-11-20T04:40:40.600Z,17.37
2018-11-20T04:43:28.388Z,18.00
2018-11-20T04:46:15.923Z,17.67
2018-11-20T04:49:16.902Z,17.50
2018-11-20T04:51:55.579Z,18.13
2018-11-20T04:54:47.381Z,15.70
2018-11-20T04:57:51.537Z,16.43
2018-11-20T05:00:46.329Z,13.23
2018-11-20T05:03:27.405Z,18.63
2018-11-20T05:06:12.435Z,17.53
2018-11-20T05:09:05.558Z,18.37
2018-11-20T05:11:49.997Z,18.10
2018-11-20T05:14:41.579Z,17.93
2018-11-20T05:17:42.609Z,19.13
2018-11-20T05:20:37.604Z,17.47
2018-11-20T05:23:32.495Z,16.37
2018-11-20T05:26:19.809Z,16.10
2018-11-20T05:29:07.237Z,16.70
2018-11-20T05:32:14.314Z,17.57
2018-11-20T05:34:59.402Z,17.10
2018-11-20T05:37:43.723Z,16.53
2018-11-20T05:40:31.243Z,17.43
2018-11-20T05:43:20.718Z,16.00
2018-11-20T05:46:27.673Z,17.33
2018-11-20T05:49:15.264Z,17.17
2018-11-20T05:52:19.112Z,16.37
2018-11-20T05:55:02.915Z,15.50
2018-11-20T05:57:47.375Z,16.67
2018-11-20T06:00:39.146Z,16.37
2018-11-20T06:03:26.243Z,16.50
2018-11-20T06:06:08.740Z,14.73
2018-11-20T06:09:06.658Z,16.00
2018-11-20T06:12:00.458Z,14.50
2018-11-20T06:14:48.144Z,15.13
2018-11-20T06:17:49.580Z,15.13
2018-11-20T06:20:50.163Z,15.27
2018-11-20T06:23:37.942Z,15.07
2018-11-20T06:26:39.089Z,14.20
2018-11-20T06:29:26.633Z,14.40
2018-11-20T06:32:18.519Z,13.77
2018-11-20T06:35:07.083Z,14.13
2018-11-20T06:38:04.987Z,14.00
2018-11-20T06:40:53.911Z,13.60
2018-11-20T06:43:41.752Z,13.03
2018-11-20T06:46:24.086Z,13.70
2018-11-20T06:49:19.170Z,14.40
2018-11-20T06:52:17.187Z,11.80
2018-11-20T06:54:56.001Z,12.33
2018-11-20T06:57:47.934Z,11.50
2018-11-20T07:00:35.352Z,10.40
2018-11-20T07:03:23.208Z,10.30
2018-11-20T07:06:12.172Z,10.67
2018-11-20T07:08:58.821Z,10.73
2018-11-20T07:11:40.022Z,10.27
2018-11-20T07:14:36.694Z,9.70
2018-11-20T07:17:33.946Z,9.67
2018-11-20T07:20:14.916Z,9.87
2018-11-20T07:23:01.744Z,8.67
2018-11-20T07:25:53.597Z,8.73
2018-11-20T07:28:42.551Z,8.03
2018-11-20T07:31:34.269Z,7.43
2018-11-20T07:34:23.229Z,7.90
2018-11-20T07:37:12.838Z,7.93
2018-11-20T07:40:16.875Z,7.77
2018-11-20T07:43:06.107Z,8.03
2018-11-20T07:45:55.053Z,8.63
2018-11-20T07:48:44.014Z,5.67
2018-11-20T07:51:45.055Z,7.80
2018-11-20T07:54:36.748Z,7.43
2018-11-20T07:57:19.342Z,8.10
2018-11-20T08:00:26.505Z,7.67
2018-11-20T08:03:15.419Z,7.77
2018-11-20T08:06:10.404Z,8.70
2018-11-20T08:08:49.963Z,7.93
2018-11-20T08:11:31.061Z,9.00
2018-11-20T08:14:22.738Z,7.97
2018-11-20T08:17:29.639Z,7.83
2018-11-20T08:20:16.779Z,9.07
2018-11-20T08:23:09.199Z,8.53
2018-11-20T08:29:07.844Z,6.70
2018-11-20T08:31:55.628Z,8.17
2018-11-20T08:34:42.863Z,8.47
2018-11-20T08:37:43.325Z,7.67
2018-11-20T08:40:44.503Z,7.37
2018-11-20T08:43:30.215Z,7.10
2018-11-20T08:46:17.935Z,8.17
2018-11-20T08:49:05.311Z,6.93
2018-11-20T08:51:57.416Z,7.50
2018-11-20T08:54:55.188Z,7.37
2018-11-20T08:57:40.546Z,7.00
2018-11-20T09:00:35.501Z,8.77
2018-11-20T09:03:27.189Z,7.40
2018-11-20T09:06:31.069Z,7.50
2018-11-20T09:09:38.277Z,7.03
2018-11-20T09:12:30.015Z,6.73
2018-11-20T09:15:14.504Z,7.80
2018-11-20T09:18:07.583Z,7.67
2018-11-20T09:21:02.317Z,7.13
2018-11-20T09:23:54.016Z,7.27
2018-11-20T09:26:56.004Z,7.27
2018-11-20T09:29:43.645Z,7.47
2018-11-20T09:32:19.323Z,7.10
2018-11-20T09:35:17.618Z,7.27
2018-11-20T09:37:59.512Z,7.10
2018-11-20T09:41:00.208Z,6.60
2018-11-20T09:43:54.043Z,6.27
2018-11-20T09:46:41.714Z,6.77
2018-11-20T09:49:42.575Z,7.10
2018-11-20T09:52:31.521Z,6.67
2018-11-20T09:55:26.147Z,6.87
2018-11-20T09:58:11.219Z,5.63
2018-11-20T10:00:58.729Z,6.40
2018-11-20T10:03:46.364Z,6.33
2018-11-20T10:06:35.255Z,5.83
2018-11-20T10:09:32.587Z,6.63
2018-11-20T10:12:21.510Z,6.33
2018-11-20T10:15:25.953Z,6.30
2018-11-20T10:18:13.409Z,6.17
2018-11-20T10:21:20.669Z,5.93
2018-11-20T10:24:08.321Z,6.30
2018-11-20T10:27:00.724Z,6.77
2018-11-20T10:29:50.480Z,6.10
2018-11-20T10:32:38.724Z,5.90
2018-11-20T10:35:30.143Z,6.60
2018-11-20T10:38:21.931Z,6.10
2018-11-20T10:41:16.899Z,6.17
2018-11-20T10:44:08.352Z,5.93
2018-11-20T10:47:12.162Z,6.10
2018-11-20T10:50:06.440Z,6.20
2018-11-20T10:52:59.348Z,5.73
2018-11-20T10:55:46.718Z,5.80
2018-11-20T10:58:34.488Z,5.90
2018-11-20T11:01:41.438Z,5.67
2018-11-20T11:04:30.857Z,5.83
2018-11-20T11:07:20.646Z,5.27
2018-11-20T11:09:59.051Z,6.07
2018-11-20T11:12:59.507Z,5.43
2018-11-20T11:15:47.185Z,5.50
2018-11-20T11:18:46.533Z,5.87
2018-11-20T11:21:34.570Z,5.53
2018-11-20T11:24:23.522Z,5.93
2018-11-20T11:27:12.484Z,5.37
2018-11-20T11:30:07.441Z,5.43
2018-11-20T11:32:56.626Z,4.83
2018-11-20T11:35:44.645Z,6.27
2018-11-20T11:38:24.556Z,5.83
2018-11-20T11:41:13.479Z,5.67
2018-11-20T11:44:01.388Z,6.37
2018-11-20T11:46:53.087Z,5.27
2018-11-20T11:49:48.030Z,5.00
2018-11-20T11:52:35.724Z,6.63
2018-11-20T11:55:42.910Z,5.57
2018-11-20T11:58:41.234Z,5.97
2018-11-20T12:04:10.575Z,6.07
2018-11-20T12:06:51.986Z,5.70
2018-11-20T12:09:40.956Z,5.47
2018-11-20T12:12:29.889Z,5.80
2018-11-20T12:15:30.934Z,5.93
2018-11-20T12:18:35.906Z,5.77
2018-11-20T12:21:24.783Z,5.77
2018-11-20T12:24:05.832Z,5.57
2018-11-20T12:26:53.334Z,7.17
2018-11-20T12:29:55.510Z,5.90
2018-11-20T12:32:49.202Z,5.10
2018-11-20T12:35:36.188Z,6.00
2018-11-20T12:38:24.041Z,6.00
2018-11-20T12:41:11.577Z,5.57
2018-11-20T12:44:20.476Z,6.03
2018-11-20T12:47:16.635Z,6.23
2018-11-20T12:50:05.574Z,5.30
2018-11-20T12:52:47.318Z,5.93
2018-11-20T12:55:31.027Z,5.93
2018-11-20T12:58:19.782Z,6.43
2018-11-20T13:01:07.412Z,6.03
2018-11-20T13:03:50.019Z,5.60
2018-11-20T13:06:37.888Z,5.13
2018-11-20T13:09:29.740Z,5.63
2018-11-20T13:12:18.682Z,5.60
2018-11-20T13:15:22.777Z,5.93
2018-11-20T13:18:14.671Z,5.73
2018-11-20T13:21:12.480Z,5.90
2018-11-20T13:24:01.448Z,6.77
2018-11-20T13:26:49.201Z,5.93
2018-11-20T13:29:47.262Z,5.37
2018-11-20T13:32:35.358Z,6.40
2018-11-20T13:35:34.602Z,6.00
2018-11-20T13:38:19.269Z,5.73
2018-11-20T13:41:47.030Z,6.40
2018-11-20T13:44:39.655Z,5.63
2018-11-20T13:47:26.962Z,5.23
2018-11-20T13:50:11.803Z,6.03
2018-11-20T13:53:11.916Z,6.33
2018-11-20T13:56:14.521Z,6.20
2018-11-20T13:59:02.190Z,6.10
2018-11-20T14:02:00.212Z,6.97
2018-11-20T14:04:48.792Z,6.30
2018-11-20T14:07:46.467Z,6.90
2018-11-20T14:10:26.904Z,6.73
2018-11-20T14:13:14.715Z,6.53
2018-11-20T14:16:06.885Z,6.20
2018-11-20T14:18:58.906Z,6.27
2018-11-20T14:21:48.017Z,6.10
2018-11-20T14:24:37.074Z,6.13
2018-11-20T14:27:31.923Z,6.00
2018-11-20T14:30:19.575Z,5.37
2018-11-20T14:33:08.480Z,6.03
2018-11-20T14:36:06.485Z,6.50
2018-11-20T14:38:58.063Z,6.00
2018-11-20T14:41:47.396Z,6.10
2018-11-20T14:44:27.720Z,5.57
2018-11-20T14:47:33.455Z,5.50
2018-11-20T14:50:19.464Z,6.60
2018-11-20T14:53:17.464Z,5.30
2018-11-20T14:56:04.422Z,5.93
2018-11-20T14:58:56.125Z,5.97
2018-11-20T15:01:57.256Z,6.53
2018-11-20T15:04:44.851Z,5.63
2018-11-20T15:07:36.752Z,6.30
2018-11-20T15:10:20.356Z,5.60
2018-11-20T15:13:09.757Z,6.10
2018-11-20T15:16:10.650Z,5.93
2018-11-20T15:19:05.494Z,5.63
2018-11-20T15:21:53.122Z,6.27
2018-11-20T15:24:41.837Z,6.17
2018-11-20T15:27:45.976Z,6.70
2018-11-20T15:30:38.029Z,6.50
2018-11-20T15:33:25.938Z,6.57
2018-11-20T15:36:26.879Z,6.57
2018-11-20T15:39:15.820Z,6.20
2018-11-20T15:42:07.690Z,6.23
2018-11-20T15:44:59.609Z,5.70
2018-11-20T15:47:51.940Z,5.83
2018-11-20T15:50:46.577Z,7.10
2018-11-20T15:53:34.105Z,6.53
2018-11-20T15:56:25.652Z,6.07
2018-11-20T15:59:17.238Z,6.43
2018-11-20T16:02:12.140Z,7.03
2018-11-20T16:05:10.147Z,7.03
2018-11-20T16:08:04.842Z,6.23
2018-11-20T16:10:53.924Z,6.43
2018-11-20T16:13:41.665Z,6.17
2018-11-20T16:16:18.232Z,6.77
2018-11-20T16:19:06.119Z,6.30
2018-11-20T16:22:04.317Z,6.03
2018-11-20T16:24:56.337Z,5.83
2018-11-20T16:27:54.443Z,6.93
2018-11-20T16:30:42.197Z,6.07
2018-11-20T16:33:46.302Z,6.83
2018-11-20T16:36:50.182Z,6.60
2018-11-20T16:39:54.529Z,6.00
2018-11-20T16:42:42.179Z,6.03
2018-11-20T16:45:24.957Z,6.67
2018-11-20T16:48:12.300Z,7.07
2018-11-20T16:51:00.095Z,6.87
2018-11-20T16:53:57.914Z,6.50
2018-11-20T16:56:46.803Z,6.53
2018-11-20T16:59:31.802Z,6.93
2018-11-20T17:02:19.428Z,6.80
2018-11-20T17:05:11.333Z,6.93
2018-11-20T17:08:15.113Z,6.90
2018-11-20T17:11:02.927Z,7.40
2018-11-20T17:13:54.374Z,6.97
2018-11-20T17:16:43.394Z,8.13
2018-11-20T17:19:35.313Z,7.60
2018-11-20T17:22:36.228Z,7.57
2018-11-20T17:25:19.494Z,7.90
2018-11-20T17:28:06.941Z,7.77
2018-11-20T17:30:54.788Z,8.00
2018-11-20T17:33:43.715Z,7.40
2018-11-20T17:36:28.210Z,7.77
2018-11-20T17:39:17.846Z,8.67
2018-11-20T17:42:05.619Z,8.03
2018-11-20T17:44:54.707Z,7.93
2018-11-20T17:47:37.729Z,9.10
2018-11-20T17:50:39.755Z,8.00
2018-11-20T17:53:36.170Z,9.23
2018-11-20T17:56:24.256Z,8.97
2018-11-20T17:59:03.255Z,8.63
2018-11-20T18:02:04.301Z,16.77
2018-11-20T18:04:52.012Z,15.30
2018-11-20T18:07:43.911Z,28.27
2018-11-20T18:10:35.631Z,65.37
2018-11-20T18:13:24.804Z,36.30
2018-11-20T18:16:20.021Z,21.87
2018-11-20T18:19:05.663Z,17.07
2018-11-20T18:21:57.419Z,15.23
2018-11-20T18:24:45.160Z,17.13
2018-11-20T18:27:39.207Z,15.57
2018-11-20T18:30:29.863Z,12.80
2018-11-20T18:33:19.086Z,9.90
2018-11-20T18:36:18.608Z,9.47
2018-11-20T18:39:15.021Z,8.73
2018-11-20T18:42:13.088Z,9.17
2018-11-20T18:45:10.950Z,8.07
2018-11-20T18:48:02.507Z,8.47
2018-11-20T18:50:43.341Z,8.50
2018-11-20T18:53:31.220Z,9.00
2018-11-20T18:56:29.103Z,9.13
2018-11-20T18:59:20.746Z,9.47
2018-11-20T19:02:08.113Z,9.20
2018-11-20T19:05:08.729Z,9.37
2018-11-20T19:08:00.528Z,8.63
2018-11-20T19:10:49.492Z,9.10
2018-11-20T19:14:37.542Z,9.37
2018-11-20T19:17:31.244Z,9.07
2018-11-20T19:20:17.988Z,9.07
2018-11-20T19:23:01.002Z,8.93
2018-11-20T19:25:47.889Z,8.67
2018-11-20T19:28:42.007Z,9.47
2018-11-20T19:31:41.888Z,9.80
2018-11-20T19:34:39.089Z,9.77
2018-11-20T19:37:30.003Z,9.30
2018-11-20T19:40:23.983Z,9.37
2018-11-20T19:43:20.762Z,9.90
2018-11-20T19:46:12.117Z,8.83
2018-11-20T19:48:58.745Z,9.00
2018-11-20T19:51:46.919Z,9.87
2018-11-20T19:54:33.852Z,10.50
2018-11-20T19:57:23.570Z,10.90
2018-11-20T20:00:14.271Z,10.87
2018-11-20T20:03:14.675Z,11.20
2018-11-20T20:06:01.915Z,10.57
2018-11-20T20:08:48.545Z,9.73
2018-11-20T20:11:35.332Z,10.40
2018-11-20T20:14:32.530Z,9.93
2018-11-20T20:17:23.268Z,10.43
2018-11-20T20:20:26.764Z,9.60
2018-11-20T20:23:30.019Z,9.73
2018-11-20T20:26:20.810Z,11.63
2018-11-20T20:29:08.937Z,11.27
2018-11-20T20:32:04.213Z,10.30
2018-11-20T20:34:52.337Z,9.57
2018-11-20T20:37:46.411Z,10.90
2018-11-20T20:40:47.249Z,11.30
2018-11-20T20:43:34.390Z,10.10
2018-11-20T20:46:22.557Z,10.40
2018-11-20T20:49:09.498Z,9.70
2018-11-20T20:52:09.512Z,9.87
2018-11-20T20:55:13.285Z,10.40
2018-11-20T20:57:59.942Z,10.50
2018-11-20T21:00:56.821Z,10.10
2018-11-20T21:03:54.087Z,10.87
2018-11-20T21:06:41.003Z,10.03
2018-11-20T21:09:47.438Z,10.57
2018-11-20T21:12:50.932Z,11.07
2018-11-20T21:15:54.145Z,11.40
2018-11-20T21:18:51.637Z,11.37
2018-11-20T21:21:48.536Z,11.60
2018-11-20T21:24:40.275Z,11.50
2018-11-20T21:27:27.212Z,11.07
2018-11-20T21:30:18.057Z,10.53
2018-11-20T21:33:18.188Z,11.17
2018-11-20T21:36:05.032Z,11.80
2018-11-20T21:39:11.360Z,11.17
2018-11-20T21:41:51.280Z,11.00
2018-11-20T21:44:38.231Z,10.50
2018-11-20T21:47:28.976Z,10.97
2018-11-20T21:50:15.762Z,11.53
2018-11-20T21:53:02.678Z,12.43
2018-11-20T21:55:50.778Z,11.00
2018-11-20T21:58:54.639Z,10.83
2018-11-20T22:01:41.448Z,11.33
2018-11-20T22:04:28.393Z,11.13
2018-11-20T22:07:15.414Z,10.77
2018-11-20T22:10:02.212Z,10.50
2018-11-20T22:12:56.606Z,12.10
2018-11-20T22:15:43.730Z,11.03
2018-11-20T22:18:32.603Z,11.60
2018-11-20T22:21:33.004Z,11.30
2018-11-20T22:24:33.115Z,11.70
2018-11-20T22:27:27.183Z,11.23
2018-11-20T22:30:30.412Z,11.97
2018-11-20T22:33:18.534Z,12.17
2018-11-20T22:35:54.501Z,12.17
2018-11-20T22:38:31.510Z,11.73
2018-11-20T22:41:28.653Z,11.90
2018-11-20T22:44:16.805Z,12.37
2018-11-20T22:47:07.829Z,11.73
2018-11-20T22:49:54.687Z,12.80
2018-11-20T22:52:42.828Z,11.60
2018-11-20T22:55:29.787Z,12.43
2018-11-20T22:58:08.990Z,13.37
2018-11-20T23:01:05.019Z,12.77
2018-11-20T23:04:05.266Z,11.83
2018-11-20T23:06:50.702Z,11.63
2018-11-20T23:09:20.016Z,11.80
2018-11-20T23:11:49.178Z,13.37
2018-11-20T23:14:18.174Z,12.27
2018-11-20T23:16:47.166Z,12.00
2018-11-20T23:19:16.162Z,13.17
2018-11-20T23:21:45.128Z,12.40
2018-11-20T23:24:15.115Z,13.00
2018-11-20T23:26:44.250Z,11.97
2018-11-20T23:29:13.278Z,11.93
2018-11-20T23:31:42.605Z,13.23
2018-11-20T23:34:11.813Z,11.93
2018-11-20T23:36:40.894Z,12.43
2018-11-20T23:39:10.320Z,13.17
2018-11-20T23:41:39.294Z,13.50
2018-11-20T23:44:08.239Z,13.23
2018-11-20T23:46:37.436Z,13.57
2018-11-20T23:49:06.392Z,14.17
2018-11-20T23:51:35.381Z,14.23
2018-11-20T23:54:04.365Z,13.50
2018-11-20T23:56:33.489Z,14.67
2018-11-20T23:59:02.439Z,15.93
